Time;durP1;ratioP1;P1;durP2;ratioP2;P2;SDS_P1;SDS_P2;PMS_P1;PMS_P2;Temp;Humidity;BMP_temperature;BMP_pressure;BME280_temperature;BME280_humidity;BME280_pressure;Samples;Min_cycle;Max_cycle;Signal;HPM_P1;HPM_P2
2021/10/08 00:02:23;;;;;;;46.72;16.48;;;6.70;99.90;;;;;;5052012;28;20076;-54
2021/10/08 00:04:49;;;;;;;55.33;17.08;;;6.60;99.90;;;;;;5052314;28;20105;-52
2021/10/08 00:07:15;;;;;;;44.38;15.13;;;6.70;99.90;;;;;;5050862;28;20508;-54
2021/10/08 00:09:40;;;;;;;27.38;14.13;;;6.70;99.90;;;;;;5051861;28;20047;-52
2021/10/08 00:12:06;;;;;;;24.38;14.43;;;6.60;99.90;;;;;;5050156;28;20072;-52
2021/10/08 00:14:32;;;;;;;24.40;14.18;;;6.70;99.90;;;;;;5051808;28;20043;-52
2021/10/08 00:16:58;;;;;;;26.05;14.93;;;6.70;99.90;;;;;;5051834;28;20135;-52
2021/10/08 00:19:25;;;;;;;24.38;14.40;;;6.70;99.90;;;;;;5051693;28;20064;-52
2021/10/08 00:21:51;;;;;;;22.42;13.68;;;6.80;99.90;;;;;;5054445;28;20048;-52
2021/10/08 00:24:16;;;;;;;22.58;13.23;;;6.90;99.90;;;;;;5052603;28;20076;-50
2021/10/08 00:26:43;;;;;;;21.65;11.50;;;6.80;99.90;;;;;;5051949;28;20037;-52
2021/10/08 00:29:09;;;;;;;37.83;11.32;;;6.80;99.90;;;;;;5042901;28;20036;-52
2021/10/08 00:31:35;;;;;;;27.70;12.10;;;6.80;99.90;;;;;;5046109;28;20048;-51
2021/10/08 00:34:01;;;;;;;25.42;12.98;;;6.80;99.90;;;;;;5052055;28;20033;-51
2021/10/08 00:36:27;;;;;;;24.38;14.05;;;6.80;99.90;;;;;;5051502;28;20052;-52
2021/10/08 00:38:53;;;;;;;85.80;17.17;;;6.80;99.90;;;;;;5050837;28;20040;-55
2021/10/08 00:41:20;;;;;;;36.55;14.95;;;6.80;99.90;;;;;;5051196;28;20044;-52
2021/10/08 00:43:46;;;;;;;22.38;12.52;;;6.80;99.90;;;;;;5048805;28;20041;-49
2021/10/08 00:46:12;;;;;;;33.10;12.40;;;6.80;99.90;;;;;;5052932;28;20041;-54
2021/10/08 00:48:37;;;;;;;52.03;14.02;;;6.90;99.90;;;;;;5052024;28;20028;-52
2021/10/08 00:51:03;;;;;;;34.33;13.23;;;6.80;99.90;;;;;;5050847;28;20037;-52
2021/10/08 00:53:29;;;;;;;65.40;14.27;;;6.80;99.90;;;;;;5049993;28;20033;-51
2021/10/08 00:55:55;;;;;;;42.58;13.48;;;6.70;99.90;;;;;;5051701;28;20072;-52
2021/10/08 00:58:22;;;;;;;36.38;14.80;;;6.70;99.90;;;;;;5036194;28;20033;-53
2021/10/08 01:00:50;;;;;;;25.95;12.68;;;6.70;99.90;;;;;;5001211;28;20100;-51
2021/10/08 01:03:21;;;;;;;19.70;12.55;;;6.60;99.90;;;;;;5050991;28;20037;-50
2021/10/08 01:05:47;;;;;;;25.50;13.88;;;6.60;99.90;;;;;;5033460;28;20041;-51
2021/10/08 01:08:14;;;;;;;19.30;12.40;;;6.60;99.90;;;;;;5050904;28;20033;-51
2021/10/08 01:10:42;;;;;;;18.65;12.32;;;6.60;99.90;;;;;;5051039;28;20082;-55
2021/10/08 01:13:09;;;;;;;19.63;11.20;;;6.60;99.90;;;;;;5040975;28;20049;-53
2021/10/08 01:15:35;;;;;;;18.42;12.43;;;6.70;99.90;;;;;;5049842;28;20041;-52
2021/10/08 01:18:01;;;;;;;19.67;12.85;;;6.70;99.90;;;;;;5051017;28;20524;-53
2021/10/08 01:20:27;;;;;;;25.80;13.63;;;6.60;99.90;;;;;;5050264;28;20520;-52
2021/10/08 01:22:59;;;;;;;30.90;12.48;;;6.60;99.90;;;;;;5037192;28;20049;-54
2021/10/08 01:25:26;;;;;;;;;;;6.60;99.90;;;;;;5043568;28;20477;-55
2021/10/08 01:27:53;;;;;;;21.77;12.48;;;6.70;99.90;;;;;;5024188;28;19923;-54
2021/10/08 01:30:23;;;;;;;20.13;12.15;;;6.60;99.90;;;;;;5050518;28;20033;-55
2021/10/08 01:32:49;;;;;;;22.15;13.40;;;6.70;99.90;;;;;;5047998;28;20033;-55
2021/10/08 01:35:15;;;;;;;19.63;12.70;;;6.70;99.90;;;;;;5050907;28;20120;-55
2021/10/08 01:37:41;;;;;;;37.88;12.48;;;6.70;99.90;;;;;;5042726;28;20536;-55
2021/10/08 01:40:07;;;;;;;33.65;11.82;;;6.60;99.90;;;;;;5035490;28;20553;-55
2021/10/08 01:42:34;;;;;;;21.10;11.40;;;6.70;99.90;;;;;;5046225;28;20045;-52
2021/10/08 01:44:59;;;;;;;26.38;12.32;;;6.60;99.90;;;;;;5048910;28;20063;-52
2021/10/08 01:47:26;;;;;;;29.40;12.68;;;6.60;99.90;;;;;;5049073;28;20036;-52
2021/10/08 01:49:51;;;;;;;19.70;11.93;;;6.60;99.90;;;;;;5049290;28;20033;-49
2021/10/08 01:52:17;;;;;;;17.58;11.40;;;6.60;99.90;;;;;;5019202;28;20058;-49
2021/10/08 01:54:43;;;;;;;28.75;12.13;;;6.60;99.90;;;;;;5042215;28;20041;-52
2021/10/08 01:57:08;;;;;;;26.17;12.30;;;6.60;99.90;;;;;;5050213;28;20513;-49
2021/10/08 01:59:34;;;;;;;17.75;11.52;;;6.50;99.90;;;;;;5050014;28;20048;-51
2021/10/08 02:01:59;;;;;;;26.98;12.50;;;6.60;99.90;;;;;;5049940;28;20040;-55
2021/10/08 02:04:25;;;;;;;41.13;14.02;;;6.50;99.90;;;;;;5054142;28;20501;-53
2021/10/08 02:06:51;;;;;;;50.15;14.00;;;6.50;99.90;;;;;;5037927;28;20127;-52
2021/10/08 02:09:16;;;;;;;34.22;13.90;;;6.50;99.90;;;;;;5045528;28;20508;-52
2021/10/08 02:11:42;;;;;;;20.23;12.88;;;6.50;99.90;;;;;;5051098;28;20521;-52
2021/10/08 02:14:08;;;;;;;23.15;12.57;;;6.50;99.90;;;;;;5053509;28;20044;-49
2021/10/08 02:16:33;;;;;;;22.40;11.80;;;6.50;99.90;;;;;;5054370;28;20041;-52
2021/10/08 02:18:59;;;;;;;29.70;11.68;;;6.50;99.90;;;;;;5044869;28;20455;-52
2021/10/08 02:21:25;;;;;;;31.80;12.18;;;6.50;99.90;;;;;;5050785;28;20127;-51
2021/10/08 02:23:51;;;;;;;25.42;11.32;;;6.50;99.90;;;;;;5052568;28;20068;-49
2021/10/08 02:26:17;;;;;;;30.05;12.50;;;6.50;99.90;;;;;;5048246;28;20048;-50
2021/10/08 02:28:44;;;;;;;28.98;11.85;;;6.50;99.90;;;;;;5055511;28;20033;-52
2021/10/08 02:31:10;;;;;;;20.88;11.50;;;6.50;99.90;;;;;;5054394;28;20111;-49
2021/10/08 02:33:36;;;;;;;72.60;15.40;;;6.50;99.90;;;;;;5053679;28;20033;-50
2021/10/08 02:36:04;;;;;;;78.60;13.63;;;6.50;99.90;;;;;;5051705;28;20032;-50
2021/10/08 02:38:30;;;;;;;56.17;13.80;;;6.50;99.90;;;;;;5052892;28;20104;-49
2021/10/08 02:40:56;;;;;;;46.63;14.43;;;6.50;99.90;;;;;;5052762;28;20116;-48
2021/10/08 02:43:22;;;;;;;67.70;15.43;;;6.50;99.90;;;;;;5050641;28;20041;-49
2021/10/08 02:45:47;;;;;;;50.72;13.70;;;6.40;99.90;;;;;;5052724;28;20521;-51
2021/10/08 02:48:14;;;;;;;64.95;14.30;;;6.50;99.90;;;;;;5053253;28;20497;-51
2021/10/08 02:50:40;;;;;;;46.63;13.35;;;6.50;99.90;;;;;;5049810;28;20523;-54
2021/10/08 02:53:05;;;;;;;19.70;11.85;;;6.40;99.90;;;;;;5049726;28;20108;-54
2021/10/08 02:55:31;;;;;;;45.17;12.98;;;6.30;99.90;;;;;;5053663;28;20056;-51
2021/10/08 02:57:57;;;;;;;43.58;12.15;;;6.30;99.90;;;;;;5052725;28;20037;-53
2021/10/08 03:00:23;;;;;;;41.55;14.45;;;6.40;99.90;;;;;;5053174;28;20036;-53
2021/10/08 03:02:48;;;;;;;34.22;12.90;;;6.40;99.90;;;;;;5049027;28;20398;-50
2021/10/08 03:05:14;;;;;;;68.68;13.00;;;6.40;99.90;;;;;;5045290;28;20092;-51
2021/10/08 03:07:40;;;;;;;109.95;15.05;;;6.40;99.90;;;;;;5045570;28;20075;-51
2021/10/08 03:10:09;;;;;;;83.65;14.38;;;6.40;99.90;;;;;;5048863;28;20033;-54
2021/10/08 03:12:34;;;;;;;69.10;13.35;;;6.30;99.90;;;;;;5039321;28;20076;-50
2021/10/08 03:15:00;;;;;;;49.33;13.43;;;6.30;99.90;;;;;;5051556;28;20450;-51
2021/10/08 03:17:25;;;;;;;56.38;12.77;;;6.30;99.90;;;;;;5048824;28;20033;-51
2021/10/08 03:19:51;;;;;;;45.83;12.25;;;6.30;99.90;;;;;;5052215;28;20551;-50
2021/10/08 03:22:16;;;;;;;42.53;12.00;;;6.20;99.90;;;;;;5048999;28;21540;-51
2021/10/08 03:24:42;;;;;;;52.53;12.27;;;6.20;99.90;;;;;;5051440;28;20063;-52
2021/10/08 03:27:09;;;;;;;35.78;12.35;;;6.20;99.90;;;;;;5043281;28;20047;-50
2021/10/08 03:29:36;;;;;;;38.83;11.93;;;6.20;99.90;;;;;;5043065;28;20060;-50
2021/10/08 03:32:02;;;;;;;33.13;11.27;;;6.20;99.90;;;;;;5052626;28;20037;-52
2021/10/08 03:34:28;;;;;;;24.15;10.50;;;6.10;99.90;;;;;;5037190;28;20433;-52
2021/10/08 03:37:00;;;;;;;37.92;10.80;;;6.10;99.90;;;;;;5053765;28;20041;-51
2021/10/08 03:39:29;;;;;;;38.88;11.45;;;6.10;99.90;;;;;;5049273;28;20041;-50
2021/10/08 03:41:56;;;;;;;32.92;11.32;;;6.00;99.90;;;;;;5043492;28;20444;-51
2021/10/08 03:44:23;;;;;;;29.30;10.32;;;6.00;99.90;;;;;;5050132;28;20102;-52
2021/10/08 03:46:54;;;;;;;25.38;10.45;;;6.00;99.90;;;;;;5052186;28;20045;-51
2021/10/08 03:49:23;;;;;;;40.85;11.40;;;6.00;99.90;;;;;;5039830;28;20040;-51
2021/10/08 03:51:50;;;;;;;41.88;11.80;;;5.90;99.90;;;;;;5049356;28;20045;-53
2021/10/08 03:54:17;;;;;;;32.95;10.40;;;5.90;99.90;;;;;;5038668;28;20036;-52
2021/10/08 03:56:44;;;;;;;24.08;10.52;;;5.90;99.90;;;;;;5032971;28;20045;-52
2021/10/08 03:59:10;;;;;;;37.75;11.15;;;6.00;99.90;;;;;;5052000;28;20029;-51
2021/10/08 04:01:36;;;;;;;33.03;10.77;;;5.90;99.90;;;;;;5050526;28;20168;-51
2021/10/08 04:04:06;;;;;;;32.33;10.40;;;5.80;99.90;;;;;;5043431;28;20081;-50
2021/10/08 04:06:34;;;;;;;20.92;9.98;;;5.80;99.90;;;;;;5036510;28;20037;-50
2021/10/08 04:09:02;;;;;;;27.98;9.95;;;5.90;99.90;;;;;;5051209;28;20489;-50
2021/10/08 04:11:28;;;;;;;23.38;10.00;;;5.90;99.90;;;;;;5051348;28;20045;-52
2021/10/08 04:13:54;;;;;;;24.35;11.07;;;5.90;99.90;;;;;;5049561;28;20501;-52
2021/10/08 04:16:20;;;;;;;20.77;9.70;;;5.80;99.90;;;;;;5021386;28;20051;-51
2021/10/08 04:18:47;;;;;;;31.25;11.77;;;5.80;99.90;;;;;;5042381;28;20047;-52
2021/10/08 04:21:13;;;;;;;17.52;10.20;;;5.90;99.90;;;;;;5051653;28;20409;-53
2021/10/08 04:23:39;;;;;;;17.48;9.95;;;5.80;99.90;;;;;;5051155;28;20041;-53
2021/10/08 04:26:05;;;;;;;17.73;9.65;;;5.80;99.90;;;;;;5049871;28;20112;-50
2021/10/08 04:28:31;;;;;;;38.60;10.68;;;5.80;99.90;;;;;;5051289;28;20091;-51
2021/10/08 04:30:57;;;;;;;52.05;11.25;;;5.80;99.90;;;;;;5034605;28;20103;-53
2021/10/08 04:33:24;;;;;;;43.50;11.02;;;5.80;99.90;;;;;;5046684;28;20486;-54
2021/10/08 04:35:50;;;;;;;43.00;10.40;;;5.80;99.90;;;;;;5043371;28;20079;-54
2021/10/08 04:38:17;;;;;;;41.65;10.35;;;5.80;99.90;;;;;;5034888;28;20077;-53
2021/10/08 04:40:43;;;;;;;39.00;10.65;;;5.70;99.90;;;;;;5051069;28;20459;-54
2021/10/08 04:43:08;;;;;;;24.05;9.75;;;5.60;99.90;;;;;;5050247;28;20120;-52
2021/10/08 04:45:34;;;;;;;28.58;10.40;;;5.60;99.90;;;;;;5024686;28;20520;-52
2021/10/08 04:48:00;;;;;;;18.05;9.93;;;5.60;99.90;;;;;;5044087;28;20421;-50
2021/10/08 04:50:26;;;;;;;24.88;9.75;;;5.60;99.90;;;;;;5049521;28;20036;-54
2021/10/08 04:52:52;;;;;;;15.63;8.88;;;5.60;99.90;;;;;;5016824;28;20052;-54
2021/10/08 04:55:18;;;;;;;17.23;8.90;;;5.60;99.90;;;;;;5051657;28;20404;-52
2021/10/08 04:57:44;;;;;;;18.95;9.43;;;5.60;99.90;;;;;;5050436;28;20497;-52
2021/10/08 05:00:10;;;;;;;29.77;9.75;;;5.60;99.90;;;;;;5050368;28;20044;-54
2021/10/08 05:02:36;;;;;;;40.60;10.15;;;5.60;99.90;;;;;;5050365;28;20041;-54
2021/10/08 05:05:02;;;;;;;42.20;11.13;;;5.60;99.90;;;;;;5038482;28;20405;-54
2021/10/08 05:07:28;;;;;;;29.52;11.70;;;5.60;99.90;;;;;;5050367;28;20037;-54
2021/10/08 05:09:53;;;;;;;17.10;9.90;;;5.50;99.90;;;;;;5051647;28;20120;-52
2021/10/08 05:12:20;;;;;;;25.60;9.35;;;5.50;99.90;;;;;;5050107;28;20059;-52
2021/10/08 05:14:46;;;;;;;16.27;9.50;;;5.40;99.90;;;;;;5050140;28;20076;-49
2021/10/08 05:17:11;;;;;;;17.38;10.18;;;5.30;99.90;;;;;;5051934;28;20503;-50
2021/10/08 05:19:37;;;;;;;16.00;9.30;;;5.30;99.90;;;;;;5050814;28;20615;-52
2021/10/08 05:22:03;;;;;;;12.10;8.48;;;5.20;99.90;;;;;;5050696;28;20063;-52
2021/10/08 05:24:30;;;;;;;12.68;8.93;;;5.20;99.90;;;;;;5009411;28;20036;-51
2021/10/08 05:26:55;;;;;;;14.93;9.57;;;5.20;99.90;;;;;;5050614;28;20025;-51
2021/10/08 05:29:21;;;;;;;16.58;9.35;;;5.30;99.90;;;;;;5049820;28;20029;-51
2021/10/08 05:31:46;;;;;;;18.70;12.02;;;5.30;99.90;;;;;;5050564;28;20099;-51
2021/10/08 05:34:12;;;;;;;24.27;12.00;;;5.30;99.90;;;;;;5050085;28;20071;-50
2021/10/08 05:36:39;;;;;;;31.45;11.98;;;5.30;99.90;;;;;;5017885;28;20087;-50
2021/10/08 05:39:05;;;;;;;40.65;12.70;;;5.30;99.90;;;;;;5038749;28;20047;-50
2021/10/08 05:41:30;;;;;;;19.55;9.07;;;5.40;99.90;;;;;;5053529;28;20040;-54
2021/10/08 05:43:56;;;;;;;16.85;9.02;;;5.30;99.90;;;;;;5053812;28;20527;-53
2021/10/08 05:46:22;;;;;;;17.33;9.18;;;5.40;99.90;;;;;;5053393;28;20025;-49
2021/10/08 05:48:47;;;;;;;68.60;12.45;;;5.40;99.90;;;;;;5050980;28;20233;-49
2021/10/08 05:51:14;;;;;;;31.88;11.88;;;5.40;99.90;;;;;;5055032;28;20029;-48
2021/10/08 05:53:44;;;;;;;48.40;11.48;;;5.40;99.90;;;;;;5053856;28;20119;-51
2021/10/08 05:56:09;;;;;;;35.30;10.48;;;5.40;99.90;;;;;;5047543;28;20138;-49
2021/10/08 05:58:35;;;;;;;26.77;10.13;;;5.40;99.90;;;;;;5032653;28;20081;-52
2021/10/08 06:01:00;;;;;;;43.20;11.95;;;5.40;99.90;;;;;;5047131;28;20068;-52
2021/10/08 06:03:26;;;;;;;20.55;11.68;;;5.40;99.90;;;;;;5054256;28;20065;-52
2021/10/08 06:05:51;;;;;;;17.67;10.95;;;5.40;99.90;;;;;;5054422;28;20037;-50
2021/10/08 06:08:17;;;;;;;18.58;9.93;;;5.50;99.90;;;;;;5053112;28;20037;-52
2021/10/08 06:10:43;;;;;;;23.27;10.10;;;5.50;99.90;;;;;;5051401;28;20044;-50
2021/10/08 06:13:09;;;;;;;18.15;10.60;;;5.50;99.90;;;;;;5032470;28;20053;-52
2021/10/08 06:15:35;;;;;;;36.63;11.98;;;5.60;99.90;;;;;;5037529;28;20564;-50
2021/10/08 06:18:00;;;;;;;35.38;11.27;;;5.60;99.90;;;;;;5053769;28;20132;-50
2021/10/08 06:20:26;;;;;;;29.35;10.75;;;5.70;99.90;;;;;;5032738;28;20027;-53
2021/10/08 06:22:53;;;;;;;24.30;11.05;;;5.70;99.90;;;;;;5047137;28;20521;-50
2021/10/08 06:25:20;;;;;;;16.17;10.45;;;5.60;99.90;;;;;;5046004;28;20047;-49
2021/10/08 06:27:51;;;;;;;21.13;10.57;;;5.60;99.90;;;;;;5022547;28;20113;-53
2021/10/08 06:30:18;;;;;;;49.05;12.75;;;5.60;99.90;;;;;;5028950;28;20430;-52
2021/10/08 06:32:44;;;;;;;62.38;13.60;;;5.60;99.90;;;;;;5040070;28;20077;-54
2021/10/08 06:35:10;;;;;;;45.70;13.48;;;5.70;99.90;;;;;;5042470;28;20064;-53
2021/10/08 06:37:35;;;;;;;24.70;11.82;;;5.70;99.90;;;;;;5042412;28;20115;-54
2021/10/08 06:40:02;;;;;;;61.65;13.60;;;5.80;99.90;;;;;;5033481;28;20036;-53
2021/10/08 06:42:28;;;;;;;124.63;13.57;;;5.80;99.90;;;;;;5024687;28;20044;-54
2021/10/08 06:44:55;;;;;;;67.53;12.77;;;5.80;99.90;;;;;;5040618;28;20034;-54
2021/10/08 06:47:20;;;;;;;40.08;12.45;;;5.80;99.90;;;;;;5044065;28;20072;-59
2021/10/08 06:49:46;;;;;;;90.82;14.15;;;5.80;99.90;;;;;;5042702;28;20095;-50
2021/10/08 06:52:12;;;;;;;51.40;12.05;;;5.90;99.90;;;;;;5041556;28;20580;-52
2021/10/08 06:54:38;;;;;;;46.78;12.82;;;5.90;99.90;;;;;;5027687;28;20572;-50
2021/10/08 06:57:03;;;;;;;36.85;12.90;;;5.90;99.90;;;;;;5045504;28;20386;-53
2021/10/08 06:59:29;;;;;;;67.28;12.90;;;6.00;99.90;;;;;;5028039;28;20417;-53
2021/10/08 07:01:55;;;;;;;61.25;12.90;;;6.10;99.90;;;;;;5046354;28;20482;-53
2021/10/08 07:04:21;;;;;;;57.42;13.75;;;6.10;99.90;;;;;;5048089;28;20029;-51
2021/10/08 07:06:47;;;;;;;105.47;14.57;;;6.10;99.90;;;;;;5051533;28;20083;-51
2021/10/08 07:09:13;;;;;;;115.13;14.45;;;6.20;99.90;;;;;;5028283;28;20087;-52
2021/10/08 07:11:38;;;;;;;40.47;13.10;;;6.20;99.90;;;;;;5048523;28;20417;-51
2021/10/08 07:14:06;;;;;;;49.53;13.30;;;6.20;99.90;;;;;;5050763;28;20045;-48
2021/10/08 07:16:32;;;;;;;27.67;13.20;;;6.20;99.90;;;;;;5048738;28;20033;-53
2021/10/08 07:19:04;;;;;;;32.58;13.73;;;6.30;99.90;;;;;;5048145;28;20110;-53
2021/10/08 07:21:30;;;;;;;31.77;12.35;;;6.40;99.90;;;;;;5043647;28;20120;-51
2021/10/08 07:23:57;;;;;;;52.67;13.52;;;6.40;99.90;;;;;;5048978;28;20115;-49
2021/10/08 07:26:30;;;;;;;24.42;12.45;;;6.50;99.90;;;;;;5038781;28;20034;-50
2021/10/08 07:28:55;;;;;;;36.85;15.23;;;6.50;99.90;;;;;;5049776;28;20036;-53
2021/10/08 07:31:21;;;;;;;38.58;14.15;;;6.50;99.90;;;;;;5052946;28;20037;-50
2021/10/08 07:33:46;;;;;;;23.77;12.85;;;6.60;99.90;;;;;;5050483;28;20528;-53
2021/10/08 07:36:12;;;;;;;22.98;13.63;;;6.70;99.90;;;;;;5046358;28;20033;-53
2021/10/08 07:38:38;;;;;;;23.58;13.55;;;6.70;99.90;;;;;;5051426;28;20093;-52
2021/10/08 07:41:04;;;;;;;41.05;14.50;;;6.80;99.90;;;;;;5040479;28;20032;-52
2021/10/08 07:43:30;;;;;;;36.05;14.43;;;6.90;99.90;;;;;;5048231;28;20045;-53
2021/10/08 07:45:56;;;;;;;27.25;14.13;;;6.90;99.90;;;;;;5034694;28;20052;-53
2021/10/08 07:48:21;;;;;;;32.80;14.40;;;6.90;99.90;;;;;;5052398;28;20025;-53
2021/10/08 07:50:47;;;;;;;29.20;13.32;;;7.00;99.90;;;;;;5045753;28;20471;-52
2021/10/08 07:53:13;;;;;;;29.38;14.10;;;7.10;99.90;;;;;;5052278;28;20057;-49
2021/10/08 07:55:38;;;;;;;41.97;14.32;;;7.20;99.90;;;;;;5047516;28;20102;-52
2021/10/08 07:58:04;;;;;;;48.28;15.35;;;7.20;99.90;;;;;;5045156;28;20405;-50
2021/10/08 08:00:29;;;;;;;28.10;15.13;;;7.30;99.90;;;;;;5044697;28;20129;-54
2021/10/08 08:02:55;;;;;;;38.58;16.23;;;7.30;99.90;;;;;;5036773;28;20049;-53
2021/10/08 08:05:20;;;;;;;37.63;17.98;;;7.40;99.90;;;;;;5030746;28;20040;-53
2021/10/08 08:07:48;;;;;;;33.70;17.67;;;7.50;99.90;;;;;;5048681;28;20048;-52
2021/10/08 08:10:14;;;;;;;35.60;17.95;;;7.60;99.90;;;;;;5026731;28;20107;-53
2021/10/08 08:12:40;;;;;;;46.55;18.92;;;7.60;99.90;;;;;;5044480;28;20636;-56
2021/10/08 08:15:06;;;;;;;39.15;18.65;;;7.80;99.90;;;;;;5050658;28;20033;-53
2021/10/08 08:17:32;;;;;;;48.42;19.38;;;7.80;99.90;;;;;;5051147;28;20099;-50
2021/10/08 08:20:02;;;;;;;49.15;19.92;;;7.90;99.90;;;;;;5051733;28;20052;-50
2021/10/08 08:22:27;;;;;;;50.15;20.75;;;8.00;99.90;;;;;;5050488;28;20041;-53
2021/10/08 08:24:54;;;;;;;49.47;21.13;;;8.10;99.90;;;;;;5046841;28;20471;-51
2021/10/08 08:27:20;;;;;;;42.45;21.08;;;8.20;99.90;;;;;;5024024;28;20036;-51
2021/10/08 08:29:46;;;;;;;45.47;21.60;;;8.30;99.90;;;;;;5020112;28;20418;-53
2021/10/08 08:32:12;;;;;;;41.30;20.73;;;8.40;99.90;;;;;;5042832;28;20066;-53
2021/10/08 08:34:37;;;;;;;42.05;19.77;;;8.50;99.90;;;;;;5009873;28;20047;-54
2021/10/08 08:37:03;;;;;;;40.22;21.08;;;8.70;99.90;;;;;;5049341;28;20453;-50
2021/10/08 08:39:31;;;;;;;47.97;23.40;;;8.80;99.90;;;;;;5047509;28;20033;-50
2021/10/08 08:41:57;;;;;;;48.88;23.85;;;8.90;99.90;;;;;;5015813;28;20048;-50
2021/10/08 08:44:22;;;;;;;48.80;23.92;;;9.10;99.90;;;;;;5051215;28;20037;-50
2021/10/08 08:46:48;;;;;;;50.35;24.52;;;9.20;99.90;;;;;;5032160;28;20041;-50
2021/10/08 08:49:13;;;;;;;51.50;24.85;;;9.40;99.90;;;;;;5032609;28;20497;-51
2021/10/08 08:51:39;;;;;;;48.67;25.17;;;9.60;99.90;;;;;;5050905;28;20127;-50
2021/10/08 08:54:07;;;;;;;50.80;24.95;;;9.70;99.90;;;;;;5048888;28;20116;-51
2021/10/08 08:56:34;;;;;;;43.83;23.05;;;9.90;99.90;;;;;;5041232;28;20033;-53
2021/10/08 08:59:03;;;;;;;48.30;24.73;;;10.10;99.90;;;;;;5048546;28;20534;-50
2021/10/08 09:01:29;;;;;;;43.40;23.77;;;10.20;99.90;;;;;;5032060;28;20041;-49
2021/10/08 09:04:03;;;;;;;42.47;23.73;;;10.40;99.90;;;;;;5050715;28;20094;-48
2021/10/08 09:06:31;;;;;;;48.05;25.48;;;10.50;99.90;;;;;;5043948;28;20082;-53
2021/10/08 09:08:56;;;;;;;43.08;24.08;;;10.70;99.90;;;;;;5049961;28;20044;-51
2021/10/08 09:11:35;;;;;;;51.72;25.77;;;10.90;99.90;;;;;;5050428;28;20036;-50
2021/10/08 09:14:17;;;;;;;41.22;23.98;;;11.00;99.90;;;;;;5050839;28;20401;-49
2021/10/08 09:17:18;;;;;;;42.60;24.47;;;11.20;99.90;;;;;;5044425;28;20041;-51
2021/10/08 09:19:54;;;;;;;45.42;23.95;;;11.40;99.90;;;;;;5044180;28;20037;-53
2021/10/08 09:22:41;;;;;;;43.38;23.60;;;11.60;99.90;;;;;;5049006;28;20041;-51
2021/10/08 09:25:31;;;;;;;43.47;24.55;;;11.70;99.90;;;;;;5045966;28;20045;-52
2021/10/08 09:28:01;;;;;;;44.00;24.65;;;11.90;99.90;;;;;;5029932;28;20125;-55
2021/10/08 09:30:39;;;;;;;38.40;21.58;;;12.00;99.90;;;;;;5036470;28;20041;-52
2021/10/08 09:33:16;;;;;;;39.90;23.77;;;12.10;99.90;;;;;;5043294;28;20370;-50
2021/10/08 09:35:42;;;;;;;36.03;22.52;;;12.20;99.90;;;;;;5039028;28;20040;-53
2021/10/08 09:38:13;;;;;;;37.55;22.38;;;12.40;99.90;;;;;;5047964;28;20120;-50
2021/10/08 09:40:50;;;;;;;33.42;21.42;;;12.50;99.90;;;;;;5048439;28;20104;-53
2021/10/08 09:43:30;;;;;;;36.75;20.20;;;12.60;99.90;;;;;;5046158;28;20408;-49
2021/10/08 09:45:58;;;;;;;33.05;21.42;;;12.70;99.90;;;;;;5048621;28;20044;-48
2021/10/08 09:48:34;;;;;;;32.35;19.80;;;12.80;99.90;;;;;;5047638;28;20033;-54
2021/10/08 09:51:16;;;;;;;34.00;20.30;;;12.90;99.90;;;;;;5035067;28;20060;-50
2021/10/08 09:53:48;;;;;;;28.20;18.40;;;13.10;99.90;;;;;;5048414;28;20047;-50
2021/10/08 09:56:37;;;;;;;35.15;18.48;;;13.10;99.90;;;;;;5048670;28;20537;-52
2021/10/08 09:59:06;;;;;;;28.92;18.23;;;13.20;99.90;;;;;;5037233;28;20091;-50
2021/10/08 10:01:33;;;;;;;25.90;17.05;;;13.30;99.90;;;;;;5051170;28;20037;-53
2021/10/08 10:03:59;;;;;;;28.10;17.83;;;13.40;99.90;;;;;;5045822;28;21503;-50
2021/10/08 10:06:25;;;;;;;29.00;17.55;;;13.50;99.80;;;;;;5031774;28;20115;-53
2021/10/08 10:08:51;;;;;;;27.50;18.23;;;13.60;99.90;;;;;;5047672;28;20116;-51
2021/10/08 10:11:19;;;;;;;26.98;16.85;;;13.60;99.90;;;;;;5050921;28;20449;-52
2021/10/08 10:13:46;;;;;;;26.67;17.45;;;13.70;99.90;;;;;;5048219;28;20116;-54
2021/10/08 10:16:15;;;;;;;26.38;18.00;;;13.70;99.90;;;;;;5050357;28;20645;-54
2021/10/08 10:18:41;;;;;;;26.60;17.45;;;13.90;99.80;;;;;;5048805;28;20041;-54
2021/10/08 10:21:07;;;;;;;26.30;17.75;;;13.90;99.20;;;;;;5030166;28;20494;-54
2021/10/08 10:23:34;;;;;;;25.80;16.42;;;14.00;99.10;;;;;;5030943;28;20029;-53
2021/10/08 10:26:00;;;;;;;22.27;15.55;;;14.00;98.70;;;;;;5053255;28;20090;-53
2021/10/08 10:28:26;;;;;;;21.67;15.15;;;14.10;98.10;;;;;;5053071;28;20512;-54
2021/10/08 10:30:52;;;;;;;20.45;13.85;;;14.20;98.40;;;;;;5050921;28;20044;-51
2021/10/08 10:33:25;;;;;;;20.90;14.02;;;14.30;97.90;;;;;;5053370;28;20079;-53
2021/10/08 10:35:53;;;;;;;24.65;15.85;;;14.30;96.90;;;;;;5043410;28;20056;-53
2021/10/08 10:38:29;;;;;;;23.52;15.02;;;14.40;97.50;;;;;;5052168;28;20052;-55
2021/10/08 10:41:10;;;;;;;22.77;15.32;;;14.40;97.40;;;;;;5049434;28;20047;-52
2021/10/08 10:43:46;;;;;;;21.40;14.20;;;14.40;97.40;;;;;;5047577;28;20033;-53
2021/10/08 10:46:37;;;;;;;24.52;16.08;;;14.50;96.40;;;;;;5034126;28;20451;-50
2021/10/08 10:51:58;;;;;;;18.23;12.50;;;14.60;96.80;;;;;;5049179;28;20405;-54
2021/10/08 10:54:38;;;;;;;16.65;12.32;;;14.60;96.40;;;;;;5047051;28;20087;-54
2021/10/08 10:57:10;;;;;;;16.40;12.32;;;14.70;95.70;;;;;;5051068;28;20052;-53
2021/10/08 10:59:37;;;;;;;20.17;12.70;;;14.70;96.10;;;;;;5052825;28;20072;-53
2021/10/08 11:02:12;;;;;;;17.92;12.55;;;14.80;95.40;;;;;;5049908;28;20051;-54
2021/10/08 11:04:40;;;;;;;15.60;11.40;;;14.80;94.90;;;;;;5052554;28;20045;-53
2021/10/08 11:07:17;;;;;;;16.50;11.70;;;14.90;94.60;;;;;;5049965;28;20053;-51
2021/10/08 11:09:52;;;;;;;15.30;11.32;;;14.90;94.90;;;;;;5047556;28;20033;-53
2021/10/08 11:12:35;;;;;;;14.63;10.75;;;15.00;95.00;;;;;;5045526;28;20424;-52
2021/10/08 11:15:19;;;;;;;;;;;15.10;93.50;;;;;;5053151;28;20037;-54
2021/10/08 11:18:01;;;;;;;13.20;9.35;;;15.10;92.30;;;;;;5049095;28;20303;-50
2021/10/08 11:20:43;;;;;;;15.55;9.98;;;15.10;93.50;;;;;;5050999;28;20155;-50
2021/10/08 11:23:22;;;;;;;13.13;9.25;;;15.20;93.30;;;;;;5036893;28;20071;-52
2021/10/08 11:26:19;;;;;;;13.88;9.13;;;15.30;93.20;;;;;;5047767;28;20037;-54
2021/10/08 11:28:46;;;;;;;13.10;9.00;;;15.30;93.30;;;;;;5046522;28;20417;-49
2021/10/08 11:31:18;;;;;;;11.57;8.60;;;15.40;92.70;;;;;;5052640;28;20025;-52
2021/10/08 11:33:49;;;;;;;12.50;8.68;;;15.40;92.20;;;;;;5044946;28;20048;-50
2021/10/08 11:36:22;;;;;;;11.02;8.05;;;15.40;91.90;;;;;;5055599;28;20040;-52
2021/10/08 11:38:52;;;;;;;11.77;8.50;;;15.50;91.40;;;;;;5048927;28;20045;-54
2021/10/08 11:41:25;;;;;;;13.48;8.90;;;15.50;92.10;;;;;;5051172;28;20048;-53
2021/10/08 11:44:22;;;;;;;12.60;8.15;;;15.50;92.10;;;;;;5044373;28;20045;-51
2021/10/08 11:52:42;;;;;;;11.20;7.78;;;15.70;90.80;;;;;;5048710;28;20454;-53
2021/10/08 11:55:15;;;;;;;9.40;6.82;;;15.80;90.20;;;;;;5036943;28;20511;-50
2021/10/08 11:57:52;;;;;;;10.70;7.32;;;15.80;91.10;;;;;;5051017;28;20105;-51
2021/10/08 12:00:24;;;;;;;12.63;7.18;;;15.80;91.00;;;;;;5050703;28;20045;-51
2021/10/08 12:03:11;;;;;;;10.48;7.65;;;15.90;90.80;;;;;;5052212;28;20123;-52
2021/10/08 12:05:47;;;;;;;11.60;7.82;;;15.90;90.80;;;;;;5050031;28;20111;-51
2021/10/08 12:08:16;;;;;;;9.57;7.05;;;15.90;90.50;;;;;;5044568;28;20036;-52
2021/10/08 12:11:07;;;;;;;12.32;7.75;;;16.00;88.00;;;;;;5052954;28;20037;-52
2021/10/08 12:13:34;;;;;;;12.18;8.05;;;16.10;88.10;;;;;;5051709;28;20539;-52
2021/10/08 12:16:00;;;;;;;13.23;7.88;;;16.20;86.90;;;;;;5051517;28;20053;-52
2021/10/08 12:18:25;;;;;;;12.77;7.95;;;16.20;88.30;;;;;;5040757;28;20083;-52
2021/10/08 12:21:16;;;;;;;11.63;7.20;;;16.10;88.40;;;;;;5044389;28;20052;-51
2021/10/08 12:23:43;;;;;;;10.73;6.47;;;16.20;89.50;;;;;;5048299;28;20045;-52
2021/10/08 12:26:11;;;;;;;13.85;9.07;;;16.20;90.00;;;;;;5049561;28;20501;-49
2021/10/08 12:28:37;;;;;;;13.45;8.35;;;16.30;87.70;;;;;;5050644;28;20047;-50
2021/10/08 12:31:05;;;;;;;10.48;7.47;;;16.30;86.80;;;;;;5043545;28;20072;-49
2021/10/08 12:33:39;;;;;;;13.50;9.55;;;16.30;86.50;;;;;;5025917;28;20120;-53
2021/10/08 12:36:26;;;;;;;13.15;9.13;;;16.40;86.40;;;;;;5016517;28;20036;-51
2021/10/08 12:38:59;;;;;;;13.82;9.55;;;16.30;87.10;;;;;;5051816;28;20132;-52
2021/10/08 12:41:58;;;;;;;12.73;9.30;;;16.30;88.40;;;;;;5052278;28;20032;-53
2021/10/08 12:44:32;;;;;;;12.93;8.20;;;16.40;86.80;;;;;;5040017;28;20597;-53
2021/10/08 12:47:10;;;;;;;12.23;8.48;;;16.50;85.70;;;;;;5050768;28;20064;-51
2021/10/08 12:49:56;;;;;;;13.75;9.25;;;16.50;87.10;;;;;;5051525;28;20037;-51
2021/10/08 12:52:45;;;;;;;14.30;8.95;;;16.40;87.60;;;;;;5045381;28;20043;-52